createdAt,value
2022-12-27T17:08:31.536Z,100365.81
2022-12-27T17:11:04.884Z,100382.09
2022-12-27T17:13:51.094Z,100373.75
2022-12-27T17:16:24.252Z,100382.81
2022-12-27T17:18:54.874Z,100396.94
2022-12-27T17:21:30.463Z,100403.06
2022-12-27T17:24:15.489Z,100410.25
2022-12-27T17:27:10.829Z,100423.22
2022-12-27T17:30:07.057Z,100427.47
2022-12-27T17:32:56.328Z,100433.22
2022-12-27T17:35:47.140Z,100418.25
2022-12-27T17:38:37.738Z,100415.81
2022-12-27T17:41:15.523Z,100418.56
2022-12-27T17:44:33.022Z,100401.81
2022-12-27T17:47:37.220Z,100408.38
2022-12-27T17:50:13.949Z,100402.91
2022-12-27T17:53:00.675Z,100419.00
2022-12-27T17:55:48.196Z,100418.88
2022-12-27T17:58:17.203Z,100425.72
2022-12-27T18:01:11.522Z,100417.72
2022-12-27T18:03:48.348Z,100423.84
2022-12-27T18:06:20.128Z,100420.66
2022-12-27T18:08:49.878Z,100432.41
2022-12-27T18:11:23.507Z,100420.38
2022-12-27T18:13:59.145Z,100426.16
2022-12-27T18:16:53.109Z,100417.19
2022-12-27T18:19:21.108Z,100409.09
2022-12-27T18:21:57.769Z,100427.88
2022-12-27T18:24:30.339Z,100422.16
2022-12-27T18:27:14.745Z,100422.56
2022-12-27T18:29:43.192Z,100412.09
2022-12-27T18:32:16.359Z,100421.06
2022-12-27T18:35:00.388Z,100427.06
2022-12-27T18:37:28.840Z,100420.66
2022-12-27T18:40:01.091Z,100413.47
2022-12-27T18:42:40.044Z,100416.41
2022-12-27T18:45:22.842Z,100406.81
2022-12-27T18:47:54.671Z,100416.06
2022-12-27T18:50:33.600Z,100408.69
2022-12-27T18:53:07.639Z,100402.00
2022-12-27T18:55:36.556Z,100392.50
2022-12-27T18:58:20.733Z,100390.91
2022-12-27T19:01:06.171Z,100390.41
2022-12-27T19:03:40.444Z,100389.88
2022-12-27T19:06:13.453Z,100383.88
2022-12-27T19:08:53.155Z,100379.03
2022-12-27T19:11:25.748Z,100383.03
2022-12-27T19:13:58.526Z,100386.91
2022-12-27T19:16:31.642Z,100392.13
2022-12-27T19:19:10.199Z,100394.22
2022-12-27T19:21:40.130Z,100398.66
2022-12-27T19:24:29.013Z,100400.13
2022-12-27T19:27:15.239Z,100401.38
2022-12-27T19:29:53.072Z,100410.28
2022-12-27T19:32:33.903Z,100408.03
2022-12-27T19:35:04.730Z,100397.75
2022-12-27T19:37:33.793Z,100399.75
2022-12-27T19:40:01.925Z,100395.63
2022-12-27T19:42:35.059Z,100401.25
2022-12-27T19:45:03.474Z,100392.31
2022-12-27T19:47:32.364Z,100401.28
2022-12-27T19:50:00.112Z,100410.63
2022-12-27T19:52:28.308Z,100409.28
2022-12-27T19:55:05.850Z,100411.44
2022-12-27T19:57:33.627Z,100404.75
2022-12-27T20:00:05.485Z,100412.09
2022-12-27T20:02:38.848Z,100406.50
2022-12-27T20:05:07.597Z,100401.97
2022-12-27T20:07:36.544Z,100410.38
2022-12-27T20:10:05.326Z,100401.81
2022-12-27T20:12:33.180Z,100399.94
2022-12-27T20:15:01.158Z,100396.75
2022-12-27T20:17:32.556Z,100395.94
2022-12-27T20:20:00.381Z,100399.03
2022-12-27T20:22:28.167Z,100402.63
2022-12-27T20:24:55.985Z,100392.22
2022-12-27T20:27:24.030Z,100393.81
